createdAt,value
2023-02-03T00:00:45.176Z,97916.66
2023-02-03T00:03:13.106Z,97925.59
2023-02-03T00:05:42.196Z,97908.72
2023-02-03T00:08:11.230Z,97913.38
2023-02-03T00:10:40.887Z,97916.06
2023-02-03T00:13:09.827Z,97914.56
2023-02-03T00:15:39.253Z,97911.09
2023-02-03T00:18:07.040Z,97919.34
2023-02-03T00:20:34.901Z,97917.88
2023-02-03T00:23:06.376Z,97908.88
2023-02-03T00:25:34.940Z,97901.91
2023-02-03T00:28:02.726Z,97895.25
2023-02-03T00:30:30.844Z,97903.38
2023-02-03T00:33:01.510Z,97900.41
2023-02-03T00:35:30.182Z,97903.75
2023-02-03T00:37:58.654Z,97889.31
2023-02-03T00:40:29.911Z,97906.00
2023-02-03T00:42:58.024Z,97915.03
2023-02-03T00:45:25.786Z,97893.56
2023-02-03T00:47:53.715Z,97930.34
2023-02-03T00:50:22.854Z,97933.66
2023-02-03T00:52:50.615Z,97938.19
2023-02-03T00:55:18.583Z,97948.34
2023-02-03T00:57:46.636Z,97946.50
2023-02-03T01:00:15.633Z,97934.59
2023-02-03T01:02:43.467Z,97942.03
2023-02-03T01:05:11.319Z,97935.63
2023-02-03T01:07:40.462Z,97948.00
2023-02-03T01:10:08.906Z,97949.66
2023-02-03T01:12:36.644Z,97955.63
2023-02-03T01:15:05.274Z,97957.97
2023-02-03T01:17:33.173Z,97962.88
2023-02-03T01:20:00.980Z,97957.25
2023-02-03T01:22:30.355Z,97972.13
2023-02-03T01:24:59.502Z,97972.41
2023-02-03T01:27:27.320Z,97989.00
2023-02-03T01:29:55.358Z,97976.56
2023-02-03T01:32:23.151Z,97984.72
2023-02-03T01:34:51.080Z,97979.97
2023-02-03T01:37:19.118Z,97971.25
2023-02-03T01:39:46.849Z,97975.50
2023-02-03T01:42:17.334Z,97976.59
2023-02-03T01:44:47.916Z,97976.63
2023-02-03T01:47:24.181Z,97977.59
2023-02-03T01:49:57.446Z,97981.13
2023-02-03T01:52:26.281Z,97985.81
2023-02-03T01:54:57.937Z,97987.19
2023-02-03T01:57:33.117Z,97986.88
2023-02-03T02:00:02.381Z,97984.53
2023-02-03T02:02:30.596Z,97971.94
2023-02-03T02:05:04.279Z,97970.09
2023-02-03T02:07:33.763Z,97888.47
2023-02-03T02:10:01.792Z,97968.28
2023-02-03T02:12:30.930Z,97984.91
2023-02-03T02:14:59.761Z,97988.03
2023-02-03T02:17:42.436Z,97990.03
2023-02-03T02:20:46.338Z,97995.19
2023-02-03T02:23:43.517Z,97987.91
2023-02-03T02:26:35.729Z,97990.94
2023-02-03T02:29:29.602Z,97990.78
2023-02-03T02:32:06.584Z,97988.00
2023-02-03T02:34:45.962Z,97972.09
2023-02-03T02:37:24.004Z,97972.44
2023-02-03T02:39:59.460Z,97940.75
2023-02-03T02:42:36.207Z,97947.25
2023-02-03T02:45:11.732Z,97935.47
2023-02-03T02:47:41.371Z,97949.03
2023-02-03T02:50:15.578Z,97940.78
2023-02-03T02:52:46.181Z,97920.03
2023-02-03T02:55:18.386Z,97925.34
2023-02-03T02:57:49.113Z,97918.06
2023-02-03T03:00:17.103Z,97915.91
2023-02-03T03:02:48.236Z,97929.19
2023-02-03T03:05:18.926Z,97935.97
2023-02-03T03:07:52.177Z,97952.41
2023-02-03T03:10:27.605Z,97941.28
2023-02-03T03:13:00.372Z,97930.34
2023-02-03T03:15:31.558Z,97921.69
2023-02-03T03:18:05.093Z,97927.34
2023-02-03T03:20:33.930Z,97941.94
2023-02-03T03:23:06.562Z,97937.31
2023-02-03T03:25:40.825Z,97931.00
2023-02-03T03:28:14.993Z,97931.66
2023-02-03T03:30:43.247Z,97948.59
2023-02-03T03:33:12.435Z,97940.59
2023-02-03T03:35:48.134Z,97935.31
2023-02-03T03:38:21.484Z,97920.56
2023-02-03T03:40:54.781Z,97921.88
2023-02-03T03:43:26.637Z,97914.25
2023-02-03T03:46:00.134Z,97905.31
2023-02-03T03:48:35.045Z,97874.63
2023-02-03T03:51:06.580Z,97895.69
2023-02-03T03:53:36.661Z,97920.69
2023-02-03T03:56:08.594Z,97933.63
2023-02-03T03:58:40.644Z,97926.31
2023-02-03T04:01:09.373Z,97932.28
2023-02-03T04:03:41.710Z,97920.38
2023-02-03T04:06:09.493Z,97927.13
2023-02-03T04:08:37.466Z,97918.66
2023-02-03T04:11:05.493Z,97910.03
2023-02-03T04:13:33.532Z,97908.88
2023-02-03T04:16:01.719Z,97901.44
2023-02-03T04:18:29.672Z,97907.72
2023-02-03T04:20:58.855Z,97892.50
2023-02-03T04:23:26.976Z,97873.91
2023-02-03T04:25:54.828Z,97866.59
2023-02-03T04:28:22.926Z,97877.19
2023-02-03T04:30:50.657Z,97874.16
2023-02-03T04:33:18.401Z,97873.84
2023-02-03T04:35:46.138Z,97886.53
2023-02-03T04:38:15.259Z,97892.66
2023-02-03T04:40:45.450Z,97896.63
2023-02-03T04:43:14.250Z,97892.19
2023-02-03T04:45:42.175Z,97888.41
2023-02-03T04:48:09.986Z,97887.25
2023-02-03T04:50:37.734Z,97879.31
2023-02-03T04:53:05.489Z,97873.50
2023-02-03T04:55:34.614Z,97861.56
2023-02-03T04:58:03.103Z,97869.16
2023-02-03T05:00:30.984Z,97886.91
2023-02-03T05:02:58.839Z,97903.31
2023-02-03T05:05:26.678Z,97931.88
2023-02-03T05:07:54.422Z,97928.59
2023-02-03T05:10:22.201Z,97919.88
2023-02-03T05:12:51.436Z,97923.16
2023-02-03T05:15:19.143Z,97924.97
2023-02-03T05:17:47.022Z,97930.94
2023-02-03T05:20:14.854Z,97934.59
2023-02-03T05:22:42.648Z,97940.06
2023-02-03T05:25:11.103Z,97943.53
2023-02-03T05:27:40.109Z,97948.03
2023-02-03T05:30:11.041Z,97948.84
2023-02-03T05:32:38.872Z,97945.69
2023-02-03T05:35:07.316Z,97948.34
2023-02-03T05:37:36.057Z,97939.69
2023-02-03T05:40:17.789Z,97939.84
2023-02-03T05:42:49.498Z,97936.53
2023-02-03T05:45:19.500Z,97929.22
2023-02-03T05:47:49.406Z,97945.75
2023-02-03T05:50:17.245Z,97953.25
2023-02-03T05:52:45.283Z,97970.94
2023-02-03T05:55:13.008Z,97976.94
2023-02-03T05:57:40.838Z,97978.00
2023-02-03T06:00:10.120Z,97983.31
2023-02-03T06:02:39.241Z,97979.19
2023-02-03T06:05:07.968Z,97964.09
2023-02-03T06:07:35.949Z,97971.09
2023-02-03T06:10:04.057Z,97960.78
2023-02-03T06:12:31.801Z,97952.63
2023-02-03T06:14:59.627Z,97920.97
2023-02-03T06:17:27.485Z,97905.69
2023-02-03T06:19:56.612Z,97913.03
2023-02-03T06:22:24.807Z,97907.44
2023-02-03T06:24:52.525Z,97908.75
2023-02-03T06:27:20.292Z,97903.13
2023-02-03T06:29:48.390Z,97907.53
2023-02-03T06:32:16.187Z,97912.69
2023-02-03T06:34:44.027Z,97925.44
2023-02-03T06:37:13.269Z,97921.63
2023-02-03T06:39:41.025Z,97927.94
2023-02-03T06:42:08.839Z,97934.38
2023-02-03T06:44:36.962Z,97953.94
2023-02-03T06:47:04.786Z,97960.88
2023-02-03T06:49:32.557Z,97969.00
2023-02-03T06:52:00.320Z,97979.53
2023-02-03T06:54:29.435Z,97969.72
2023-02-03T06:56:57.190Z,97968.22
2023-02-03T06:59:24.938Z,97983.09
2023-02-03T07:01:53.010Z,97984.47
2023-02-03T07:04:20.813Z,97987.25
2023-02-03T07:06:48.604Z,97981.38
2023-02-03T07:09:16.596Z,97990.91
2023-02-03T07:11:45.706Z,97997.41
2023-02-03T07:14:13.542Z,97996.06
2023-02-03T07:16:41.485Z,98019.75
2023-02-03T07:19:09.406Z,98026.78
2023-02-03T07:21:37.157Z,98027.53
2023-02-03T07:24:05.471Z,98005.50
2023-02-03T07:26:33.252Z,97999.19
2023-02-03T07:29:02.397Z,97999.34
2023-02-03T07:31:30.242Z,97988.78
2023-02-03T07:33:59.565Z,97998.59
2023-02-03T07:36:28.120Z,97993.25
2023-02-03T07:38:56.324Z,97990.31
2023-02-03T07:41:24.313Z,98011.22
2023-02-03T07:43:52.049Z,98022.88
2023-02-03T07:46:21.190Z,98010.47
2023-02-03T07:48:49.016Z,98003.00
2023-02-03T07:51:16.825Z,98003.28
2023-02-03T07:53:44.626Z,97984.34
2023-02-03T07:56:13.073Z,97981.91
2023-02-03T07:58:40.952Z,97977.53
2023-02-03T08:01:14.061Z,97985.59
2023-02-03T08:03:43.737Z,97994.78
2023-02-03T08:06:11.963Z,98025.66
2023-02-03T08:08:41.408Z,98025.75
2023-02-03T08:11:09.282Z,97997.59
2023-02-03T08:13:37.191Z,97972.47
2023-02-03T08:16:05.541Z,97950.53
2023-02-03T08:18:33.363Z,97971.81
2023-02-03T08:21:04.095Z,97968.72
2023-02-03T08:23:32.209Z,97957.28
2023-02-03T08:25:59.961Z,97966.78
2023-02-03T08:28:27.743Z,97967.03
2023-02-03T08:30:56.557Z,97970.38
2023-02-03T08:33:24.569Z,97971.06
2023-02-03T08:35:52.648Z,97979.44
2023-02-03T08:38:22.610Z,97980.88
2023-02-03T08:40:50.460Z,97969.84
2023-02-03T08:43:18.222Z,97940.44
2023-02-03T08:45:46.066Z,97953.88
2023-02-03T08:48:13.960Z,97948.66
2023-02-03T08:50:44.479Z,97964.25
2023-02-03T08:53:12.616Z,97972.38
2023-02-03T08:55:41.883Z,97974.22
2023-02-03T08:58:09.690Z,97964.91
2023-02-03T09:00:37.525Z,97962.66
2023-02-03T09:03:07.842Z,97968.34
2023-02-03T09:05:36.538Z,97986.19
2023-02-03T09:08:04.979Z,97990.53
2023-02-03T09:10:33.028Z,97989.34
2023-02-03T09:13:02.569Z,97976.00
2023-02-03T09:15:30.374Z,97977.75
2023-02-03T09:17:58.127Z,97975.81
2023-02-03T09:20:26.538Z,97975.63
2023-02-03T09:22:55.113Z,97972.13
2023-02-03T09:25:22.873Z,97977.59
2023-02-03T09:27:50.720Z,97979.13
2023-02-03T09:30:20.231Z,97975.66
2023-02-03T09:32:54.320Z,97979.34
2023-02-03T09:35:22.237Z,97972.09
2023-02-03T09:37:50.023Z,97975.56
2023-02-03T09:40:23.194Z,97964.03
2023-02-03T09:43:03.546Z,97936.06
2023-02-03T09:45:33.428Z,97932.19
2023-02-03T09:48:06.899Z,97946.88
2023-02-03T09:50:37.403Z,97947.25
2023-02-03T09:53:11.946Z,97944.72
2023-02-03T09:55:42.718Z,97963.53
2023-02-03T09:58:13.807Z,97957.31
2023-02-03T10:00:45.622Z,97927.63
2023-02-03T10:03:23.310Z,97949.41
2023-02-03T10:06:03.629Z,97949.09
2023-02-03T10:08:44.940Z,97958.34
2023-02-03T10:11:23.930Z,97963.13
2023-02-03T10:14:04.623Z,97960.53
2023-02-03T10:16:54.313Z,97950.13
2023-02-03T10:19:28.107Z,97956.91
2023-02-03T10:22:00.155Z,97967.47
2023-02-03T10:24:28.621Z,97975.56
2023-02-03T10:26:56.826Z,97970.72
2023-02-03T10:29:33.994Z,97963.44
2023-02-03T10:32:03.553Z,97964.03
2023-02-03T10:34:31.383Z,97952.06
2023-02-03T10:37:03.141Z,97959.75
2023-02-03T10:39:35.660Z,97955.47
2023-02-03T10:42:06.401Z,97947.19
2023-02-03T10:44:40.087Z,97951.13
2023-02-03T10:47:26.318Z,97933.78
2023-02-03T10:49:56.495Z,97933.13
2023-02-03T10:52:30.202Z,97938.66
2023-02-03T10:54:59.445Z,97928.00
2023-02-03T10:57:30.617Z,97936.63
2023-02-03T11:00:22.761Z,97939.09
2023-02-03T11:03:00.171Z,97945.47
2023-02-03T11:05:28.109Z,97940.69
2023-02-03T11:07:56.356Z,97932.03
2023-02-03T11:10:28.569Z,97928.84
2023-02-03T11:13:13.061Z,97930.66
2023-02-03T11:15:46.465Z,97917.28
2023-02-03T11:18:53.090Z,97917.81
2023-02-03T11:21:23.351Z,97914.50
2023-02-03T11:23:58.784Z,97891.22
2023-02-03T11:26:30.618Z,97880.38
2023-02-03T11:29:00.571Z,97876.03
2023-02-03T11:31:30.683Z,97893.19
2023-02-03T11:34:03.527Z,97894.06
2023-02-03T11:36:33.730Z,97892.06
2023-02-03T11:39:22.044Z,97891.38
2023-02-03T11:41:50.240Z,97886.25
2023-02-03T11:44:21.057Z,97909.53
2023-02-03T11:46:52.141Z,97903.53
2023-02-03T11:49:55.715Z,97901.16
2023-02-03T11:52:41.167Z,97911.84
2023-02-03T11:55:21.209Z,97914.09
2023-02-03T11:58:01.811Z,97903.66
2023-02-03T12:00:36.548Z,97901.38
2023-02-03T12:03:19.343Z,97901.41
2023-02-03T12:06:03.292Z,97891.44
2023-02-03T12:08:51.591Z,97884.63
2023-02-03T12:11:30.823Z,97876.88
2023-02-03T12:14:16.276Z,97876.75
2023-02-03T12:17:05.486Z,97851.66
2023-02-03T12:19:44.292Z,97872.63
2023-02-03T12:22:24.935Z,97878.09
2023-02-03T12:25:04.208Z,97881.00
2023-02-03T12:27:43.192Z,97880.47
2023-02-03T12:30:16.873Z,97873.50
2023-02-03T12:32:50.729Z,97870.41
2023-02-03T12:35:22.638Z,97872.88
2023-02-03T12:37:55.765Z,97873.25
2023-02-03T12:40:36.003Z,97857.50
2023-02-03T12:43:19.494Z,97854.56
2023-02-03T12:45:54.234Z,97835.56
2023-02-03T12:48:27.106Z,97838.44
2023-02-03T12:51:00.084Z,97832.19
2023-02-03T12:53:32.767Z,97827.94
2023-02-03T12:56:10.790Z,97826.16
2023-02-03T12:58:42.091Z,97818.16
2023-02-03T13:01:16.979Z,97803.25
2023-02-03T13:03:50.104Z,97824.25
2023-02-03T13:06:25.710Z,97809.38
2023-02-03T13:08:59.278Z,97802.16
2023-02-03T13:11:34.929Z,97804.97
2023-02-03T13:14:09.139Z,97806.59
2023-02-03T13:16:42.023Z,97804.81
2023-02-03T13:19:16.270Z,97810.16
2023-02-03T13:21:46.578Z,97803.09
2023-02-03T13:24:14.411Z,97804.50
2023-02-03T13:27:04.982Z,97800.75
2023-02-03T13:29:51.499Z,97795.13
2023-02-03T13:32:33.887Z,97791.16
2023-02-03T13:35:33.229Z,97783.47
2023-02-03T13:38:18.068Z,97773.94
2023-02-03T13:40:57.365Z,97766.63
2023-02-03T13:43:38.312Z,97768.41
2023-02-03T13:46:09.469Z,97758.50
2023-02-03T13:48:38.194Z,97769.50
2023-02-03T13:51:09.804Z,97775.34
2023-02-03T13:53:40.324Z,97787.84
2023-02-03T13:56:10.428Z,97766.22
2023-02-03T13:58:40.754Z,97764.97
2023-02-03T14:01:33.255Z,97771.16
2023-02-03T14:04:02.321Z,97773.06
2023-02-03T14:06:59.842Z,97776.59
2023-02-03T14:09:47.098Z,97773.81
2023-02-03T14:12:36.896Z,97775.97
2023-02-03T14:15:33.700Z,97791.28
2023-02-03T14:18:35.488Z,97799.63
2023-02-03T14:21:22.713Z,97815.88
2023-02-03T14:24:08.759Z,97813.06
2023-02-03T14:26:41.600Z,97793.78
2023-02-03T14:29:11.545Z,97808.41
2023-02-03T14:31:59.831Z,97809.63
2023-02-03T14:34:34.401Z,97816.25
2023-02-03T14:37:16.513Z,97821.47
2023-02-03T14:40:26.693Z,97818.81
2023-02-03T14:43:20.684Z,97709.47
2023-02-03T14:46:04.795Z,97795.44
2023-02-03T14:48:49.114Z,97808.06
2023-02-03T14:51:30.452Z,97829.94
2023-02-03T14:54:12.171Z,97833.66
2023-02-03T14:57:06.803Z,97846.75
2023-02-03T14:59:41.069Z,97850.50
2023-02-03T15:02:12.653Z,97845.63
2023-02-03T15:04:42.319Z,97848.97
2023-02-03T15:07:10.228Z,97857.69
2023-02-03T15:09:43.117Z,97852.94
2023-02-03T15:12:21.195Z,97843.47
2023-02-03T15:14:48.981Z,97851.47
2023-02-03T15:17:24.547Z,97851.47
2023-02-03T15:19:58.649Z,97859.28
2023-02-03T15:22:28.612Z,97859.25
2023-02-03T15:24:58.741Z,97847.94
2023-02-03T15:27:28.562Z,97848.47
2023-02-03T15:29:58.916Z,97837.94
2023-02-03T15:32:31.510Z,97858.84
2023-02-03T15:35:04.226Z,97853.19
2023-02-03T15:37:37.171Z,97865.03
2023-02-03T15:40:09.974Z,97848.81
2023-02-03T15:42:40.686Z,97827.81
2023-02-03T15:45:18.569Z,97832.22
2023-02-03T15:47:52.214Z,97843.88
2023-02-03T15:50:34.305Z,97855.34
2023-02-03T15:53:10.222Z,97855.56
2023-02-03T15:55:43.071Z,97838.72
2023-02-03T15:58:19.209Z,97824.72
2023-02-03T16:00:50.949Z,97811.88
2023-02-03T16:03:22.097Z,97814.47
2023-02-03T16:05:52.419Z,97825.72
2023-02-03T16:08:29.398Z,97870.19
2023-02-03T16:10:57.436Z,97855.47
2023-02-03T16:13:26.715Z,97882.03
2023-02-03T16:16:01.464Z,97895.97
2023-02-03T16:18:29.331Z,97889.88
2023-02-03T16:20:58.576Z,97900.25
2023-02-03T16:23:27.611Z,97897.28
2023-02-03T16:26:06.605Z,97900.81
2023-02-03T16:28:52.547Z,97902.97
2023-02-03T16:31:39.893Z,97898.56
2023-02-03T16:34:32.454Z,97901.53
2023-02-03T16:37:19.033Z,97906.94
2023-02-03T16:40:04.283Z,97904.00
2023-02-03T16:42:56.710Z,97879.44
2023-02-03T16:45:42.006Z,97886.22
2023-02-03T16:48:29.900Z,97884.91
2023-02-03T16:50:59.577Z,97886.19
2023-02-03T16:53:30.325Z,97873.16
2023-02-03T16:55:59.796Z,97871.72
2023-02-03T16:58:27.827Z,97869.84
2023-02-03T17:00:56.626Z,97868.78
2023-02-03T17:03:26.189Z,97852.69
2023-02-03T17:05:54.651Z,97886.75
2023-02-03T17:08:24.541Z,97889.44
2023-02-03T17:10:53.837Z,97890.84
2023-02-03T17:13:24.550Z,97880.38
2023-02-03T17:15:53.597Z,97885.66
2023-02-03T17:18:21.707Z,97884.97
2023-02-03T17:20:49.587Z,97894.13
2023-02-03T17:23:17.791Z,97888.34
2023-02-03T17:25:46.735Z,97879.91
2023-02-03T17:28:16.530Z,97879.06
2023-02-03T17:30:44.616Z,97889.44
2023-02-03T17:33:13.150Z,97876.16
2023-02-03T17:35:42.767Z,97880.69
2023-02-03T17:38:10.964Z,97866.03
2023-02-03T17:54:34.288Z,97874.53
2023-02-03T17:57:02.214Z,97882.44
2023-02-03T17:59:31.364Z,97882.09
2023-02-03T18:01:59.107Z,97885.88
2023-02-03T18:04:26.966Z,97881.75
2023-02-03T18:06:54.744Z,97883.97
2023-02-03T18:09:23.704Z,97896.75
2023-02-03T18:11:51.471Z,97901.97
2023-02-03T18:14:19.220Z,97909.78
2023-02-03T18:16:48.347Z,97903.47
2023-02-03T18:19:16.948Z,97897.84
2023-02-03T18:21:45.710Z,97903.16
2023-02-03T18:24:15.022Z,97920.53
2023-02-03T18:26:49.442Z,97903.75
2023-02-03T18:29:19.165Z,97898.78
2023-02-03T18:31:49.177Z,97899.63
2023-02-03T18:34:17.681Z,97895.31
2023-02-03T18:36:45.654Z,97917.53
2023-02-03T18:39:15.690Z,97905.56
2023-02-03T18:41:43.573Z,97902.22
2023-02-03T18:44:11.360Z,97909.38
2023-02-03T18:46:39.203Z,97901.41
2023-02-03T18:49:10.469Z,97893.03
2023-02-03T18:51:38.604Z,97869.06
2023-02-03T18:54:07.816Z,97880.25
2023-02-03T18:56:36.005Z,97866.78
2023-02-03T18:59:09.434Z,97868.91
2023-02-03T19:01:39.213Z,97866.78
2023-02-03T19:04:08.940Z,97867.47
2023-02-03T19:06:37.265Z,97875.72
2023-02-03T19:09:06.440Z,97882.03
2023-02-03T19:11:35.116Z,97877.72
2023-02-03T19:14:03.075Z,97884.63
2023-02-03T19:16:31.671Z,97889.50
2023-02-03T19:18:59.572Z,97894.13
2023-02-03T19:21:28.769Z,97895.75
2023-02-03T19:23:56.643Z,97899.28
2023-02-03T19:26:24.408Z,97892.31
2023-02-03T19:28:52.699Z,97889.25
2023-02-03T19:31:20.627Z,97896.22
2023-02-03T19:33:48.457Z,97894.41
2023-02-03T19:36:16.791Z,97902.38
2023-02-03T19:38:46.422Z,97900.22
2023-02-03T19:41:14.207Z,97909.22
2023-02-03T19:43:42.041Z,97919.75
2023-02-03T19:46:10.164Z,97923.53
2023-02-03T19:48:38.626Z,97931.22
2023-02-03T19:51:07.514Z,97926.56
2023-02-03T19:53:35.277Z,97930.41
2023-02-03T19:56:04.755Z,97937.47
2023-02-03T19:58:33.248Z,97919.56
2023-02-03T20:01:01.033Z,97917.19
2023-02-03T20:03:28.757Z,97917.88
2023-02-03T20:05:56.529Z,97906.56
2023-02-03T20:08:24.353Z,97909.75
2023-02-03T20:10:52.488Z,97907.94
2023-02-03T20:13:21.814Z,97896.09
2023-02-03T20:15:49.624Z,97892.31
2023-02-03T20:18:17.410Z,97908.22
2023-02-03T20:20:45.186Z,97913.25
2023-02-03T20:23:12.885Z,97913.38
2023-02-03T20:25:40.602Z,97921.16
2023-02-03T20:28:08.583Z,97906.94
2023-02-03T20:30:38.714Z,97910.53
2023-02-03T20:33:06.454Z,97899.66
2023-02-03T20:35:34.411Z,97904.59
2023-02-03T20:38:02.197Z,97890.66
2023-02-03T20:40:30.324Z,97904.06
2023-02-03T20:43:02.543Z,97904.38
2023-02-03T20:45:31.111Z,97908.88
2023-02-03T20:48:01.035Z,97920.34
2023-02-03T20:50:40.626Z,97926.16
2023-02-03T20:53:14.435Z,97912.66
2023-02-03T20:55:42.819Z,97899.81
2023-02-03T20:58:19.100Z,97892.63
2023-02-03T21:00:49.510Z,97899.66
2023-02-03T21:03:34.747Z,97915.28
2023-02-03T21:06:03.182Z,97904.50
2023-02-03T21:08:31.203Z,97904.28
2023-02-03T21:10:58.999Z,97894.75
2023-02-03T21:13:28.606Z,97905.69
2023-02-03T21:15:59.557Z,97898.25
2023-02-03T21:18:35.188Z,97911.84
2023-02-03T21:21:03.771Z,97912.19
2023-02-03T21:23:38.812Z,97916.44
2023-02-03T21:26:19.323Z,97915.78
2023-02-03T21:28:51.501Z,97926.50
2023-02-03T21:31:26.104Z,97900.03
2023-02-03T21:33:57.471Z,97894.91
2023-02-03T21:36:27.918Z,97909.81
2023-02-03T21:38:57.340Z,97897.88
2023-02-03T21:41:26.676Z,97909.69
2023-02-03T21:43:55.809Z,97918.81
2023-02-03T21:46:26.729Z,97920.84
2023-02-03T21:48:56.906Z,97909.59
2023-02-03T21:51:26.693Z,97923.50
2023-02-03T21:53:56.464Z,97905.91
2023-02-03T21:56:26.727Z,97925.25
2023-02-03T21:58:57.558Z,97928.84
2023-02-03T22:01:26.881Z,97924.38
2023-02-03T22:03:58.986Z,97930.34
2023-02-03T22:06:27.578Z,97930.50
2023-02-03T22:08:57.089Z,97930.81
2023-02-03T22:11:26.938Z,97928.84
2023-02-03T22:13:58.143Z,97923.06
2023-02-03T22:16:28.852Z,97931.34
2023-02-03T22:18:58.480Z,97926.56
2023-02-03T22:21:27.583Z,97938.19
2023-02-03T22:23:55.792Z,97927.28
2023-02-03T22:26:23.735Z,97936.22
2023-02-03T22:28:51.789Z,97930.56
2023-02-03T22:31:20.527Z,97937.84
2023-02-03T22:33:49.071Z,97937.97
2023-02-03T22:36:18.237Z,97934.47
2023-02-03T22:38:46.133Z,97940.44
2023-02-03T22:41:13.945Z,97938.47
2023-02-03T22:43:41.925Z,97942.22
2023-02-03T22:46:10.039Z,97944.19
2023-02-03T22:48:38.676Z,97942.72
2023-02-03T22:51:06.876Z,97937.94
2023-02-03T22:53:36.275Z,97949.03
2023-02-03T22:56:04.190Z,97946.44
2023-02-03T22:58:32.008Z,97959.69
2023-02-03T23:00:59.843Z,97961.16
2023-02-03T23:03:27.913Z,97962.66
2023-02-03T23:05:56.940Z,97947.03
2023-02-03T23:08:25.007Z,97955.00
2023-02-03T23:10:54.136Z,97965.16
2023-02-03T23:13:22.013Z,97962.34
2023-02-03T23:15:49.783Z,97965.94
2023-02-03T23:18:17.677Z,97959.94
2023-02-03T23:20:45.459Z,97950.31
2023-02-03T23:23:14.127Z,97946.53
2023-02-03T23:25:41.929Z,97943.09
2023-02-03T23:28:11.217Z,97936.13
2023-02-03T23:30:38.962Z,97940.81
2023-02-03T23:33:06.951Z,97938.63
2023-02-03T23:35:45.706Z,97933.00
2023-02-03T23:38:13.612Z,97939.00
2023-02-03T23:40:44.818Z,97935.59
2023-02-03T23:43:14.830Z,97932.25
2023-02-03T23:45:42.634Z,97947.88
2023-02-03T23:48:10.384Z,97941.56
2023-02-03T23:50:38.169Z,97941.88
2023-02-03T23:53:05.978Z,97938.91
2023-02-03T23:55:33.713Z,97947.88
2023-02-03T23:58:01.612Z,97943.22
